createdAt,value
2022-08-18T00:01:14.615Z,57.00
2022-08-18T00:03:56.001Z,52.25
2022-08-18T00:06:28.463Z,56.17
2022-08-18T00:08:56.478Z,53.95
2022-08-18T00:11:23.915Z,52.22
2022-08-18T00:13:51.040Z,52.90
2022-08-18T00:16:17.995Z,52.50
2022-08-18T00:18:44.929Z,55.58
2022-08-18T00:21:12.210Z,56.55
2022-08-18T00:23:39.382Z,58.25
2022-08-18T00:26:06.728Z,55.17
2022-08-18T00:28:33.855Z,54.88
2022-08-18T00:31:01.435Z,57.42
2022-08-18T00:33:28.274Z,55.00
2022-08-18T00:35:55.051Z,58.33
2022-08-18T00:38:23.604Z,54.63
2022-08-18T00:40:53.870Z,60.92
2022-08-18T00:43:27.866Z,62.30
2022-08-18T00:45:55.047Z,55.40
2022-08-18T00:48:23.965Z,54.17
2022-08-18T00:50:56.008Z,54.67
2022-08-18T00:53:35.695Z,53.63
2022-08-18T00:56:11.463Z,51.65
2022-08-18T00:58:44.562Z,58.08
2022-08-18T01:01:13.490Z,56.75
2022-08-18T01:03:43.687Z,59.50
2022-08-18T01:06:17.499Z,61.33
2022-08-18T01:08:44.592Z,61.40
2022-08-18T01:11:13.212Z,58.17
2022-08-18T01:13:43.390Z,59.22
2022-08-18T01:16:28.858Z,62.13
2022-08-18T01:19:14.788Z,63.63
2022-08-18T01:21:52.406Z,61.85
2022-08-18T01:24:53.718Z,70.30
2022-08-18T01:27:21.220Z,63.70
2022-08-18T01:29:50.154Z,63.03
2022-08-18T01:32:20.684Z,63.67
2022-08-18T01:34:50.083Z,62.35
2022-08-18T01:37:23.229Z,72.72
2022-08-18T01:41:21.928Z,72.65
2022-08-18T01:42:39.819Z,82.13
2022-08-18T01:45:08.302Z,86.32
2022-08-18T01:47:47.869Z,91.85
2022-08-18T01:50:16.600Z,102.78
2022-08-18T01:52:43.803Z,84.18
2022-08-18T01:55:11.011Z,94.25
2022-08-18T01:57:45.192Z,108.55
2022-08-18T02:00:18.925Z,93.03
2022-08-18T02:02:47.151Z,89.00
2022-08-18T02:05:38.163Z,83.38
2022-08-18T02:08:06.433Z,94.03
2022-08-18T02:10:34.073Z,86.97
2022-08-18T02:13:02.307Z,84.60
2022-08-18T02:15:29.335Z,91.55
2022-08-18T02:17:56.172Z,86.22
2022-08-18T02:20:23.098Z,90.15
2022-08-18T02:22:50.544Z,101.25
2022-08-18T02:25:19.096Z,92.57
2022-08-18T02:27:46.361Z,91.40
2022-08-18T02:30:15.946Z,91.68
2022-08-18T02:32:43.068Z,93.00
2022-08-18T02:35:12.131Z,99.00
2022-08-18T02:37:47.877Z,92.30
2022-08-18T02:40:15.947Z,87.15
2022-08-18T02:42:44.381Z,91.57
2022-08-18T02:45:12.967Z,87.63
2022-08-18T02:47:40.484Z,83.80
2022-08-18T02:50:10.886Z,85.63
2022-08-18T02:52:38.366Z,82.90
2022-08-18T02:55:08.294Z,87.07
2022-08-18T02:57:35.422Z,94.78
2022-08-18T03:00:02.630Z,90.78
2022-08-18T03:02:30.003Z,85.07
2022-08-18T03:04:57.058Z,86.80
2022-08-18T03:07:25.491Z,90.10
2022-08-18T03:09:52.320Z,86.03
2022-08-18T03:12:19.473Z,80.43
2022-08-18T03:14:46.811Z,86.47
2022-08-18T03:17:15.049Z,91.68
2022-08-18T03:19:45.241Z,81.20
2022-08-18T03:22:28.701Z,79.55
2022-08-18T03:24:58.619Z,86.20
2022-08-18T03:27:29.262Z,89.28
2022-08-18T03:29:56.976Z,81.38
2022-08-18T03:32:25.933Z,89.93
2022-08-18T03:34:53.096Z,82.60
2022-08-18T03:37:19.977Z,130.98
2022-08-18T03:39:51.925Z,88.72
2022-08-18T03:42:18.920Z,107.80
2022-08-18T03:44:46.812Z,77.28
2022-08-18T03:47:13.983Z,78.70
2022-08-18T03:49:42.159Z,97.18
2022-08-18T03:52:10.485Z,96.22
2022-08-18T03:54:39.183Z,76.88
2022-08-18T03:57:09.384Z,74.53
2022-08-18T03:59:36.769Z,75.00
2022-08-18T04:02:05.446Z,72.85
2022-08-18T04:04:33.512Z,74.25
2022-08-18T04:07:05.613Z,75.57
2022-08-18T04:09:34.006Z,77.53
2022-08-18T04:12:16.691Z,83.35
2022-08-18T04:14:48.038Z,81.95
2022-08-18T04:17:15.931Z,79.60
2022-08-18T04:19:42.855Z,72.38
2022-08-18T04:22:09.741Z,74.93
2022-08-18T04:24:44.626Z,72.97
2022-08-18T04:27:12.331Z,73.50
2022-08-18T04:29:39.273Z,71.45
2022-08-18T04:32:06.625Z,71.85
2022-08-18T04:34:34.266Z,84.90
2022-08-18T04:37:02.295Z,61.42
2022-08-18T04:39:30.112Z,56.85
2022-08-18T04:41:59.271Z,74.45
2022-08-18T04:44:26.112Z,61.88
2022-08-18T04:46:54.410Z,61.22
2022-08-18T04:49:24.281Z,64.05
2022-08-18T04:52:34.112Z,79.95
2022-08-18T04:54:58.395Z,63.15
2022-08-18T04:57:26.253Z,61.83
2022-08-18T04:59:53.429Z,67.93
2022-08-18T05:02:21.552Z,64.47
2022-08-18T05:04:48.699Z,71.90
2022-08-18T05:07:19.976Z,73.57
2022-08-18T05:09:47.198Z,81.75
2022-08-18T05:12:15.563Z,81.85
2022-08-18T05:14:47.208Z,87.47
2022-08-18T05:17:15.981Z,67.72
2022-08-18T05:19:44.612Z,76.45
2022-08-18T05:22:17.917Z,62.13
2022-08-18T05:24:45.818Z,98.07
2022-08-18T05:27:13.305Z,67.97
2022-08-18T05:29:41.788Z,68.47
2022-08-18T05:32:42.500Z,66.78
2022-08-18T05:35:10.682Z,69.30
2022-08-18T05:37:50.052Z,90.90
2022-08-18T05:40:17.885Z,82.18
2022-08-18T05:42:46.924Z,69.03
2022-08-18T05:45:17.415Z,60.63
2022-08-18T05:47:45.188Z,84.10
2022-08-18T05:50:17.314Z,69.18
2022-08-18T05:53:03.328Z,68.97
2022-08-18T05:56:22.838Z,71.07
2022-08-18T05:58:52.951Z,70.88
2022-08-18T06:01:27.260Z,77.20
2022-08-18T06:04:06.536Z,65.80
2022-08-18T06:06:36.080Z,96.55
2022-08-18T06:09:13.307Z,69.80
2022-08-18T06:11:40.456Z,82.65
2022-08-18T06:14:07.463Z,81.50
2022-08-18T06:16:53.526Z,87.78
2022-08-18T06:19:31.004Z,97.20
2022-08-18T06:22:17.703Z,75.32
2022-08-18T06:24:51.906Z,75.82
2022-08-18T06:27:41.030Z,70.03
2022-08-18T06:30:24.894Z,73.30
2022-08-18T06:33:07.178Z,64.38
2022-08-18T06:35:54.384Z,135.93
2022-08-18T06:38:38.898Z,89.78
2022-08-18T06:41:37.896Z,72.85
2022-08-18T06:44:13.017Z,76.60
2022-08-18T06:46:54.964Z,81.47
2022-08-18T06:49:54.849Z,83.35
2022-08-18T06:52:32.182Z,82.68
2022-08-18T06:55:03.763Z,90.88
2022-08-18T06:57:35.229Z,95.85
2022-08-18T07:00:25.780Z,91.63
2022-08-18T07:03:01.746Z,96.30
2022-08-18T07:05:31.622Z,93.35
2022-08-18T07:08:26.079Z,91.00
2022-08-18T07:10:53.476Z,96.03
2022-08-18T07:13:30.259Z,95.75
2022-08-18T07:16:34.491Z,92.22
2022-08-18T07:19:20.731Z,99.22
2022-08-18T07:22:07.293Z,101.75
2022-08-18T07:24:49.214Z,95.18
2022-08-18T07:27:21.054Z,88.88
2022-08-18T07:30:11.948Z,88.53
2022-08-18T07:32:54.391Z,86.45
2022-08-18T07:35:28.118Z,83.88
2022-08-18T07:38:38.591Z,81.90
2022-08-18T07:41:14.537Z,76.82
2022-08-18T07:43:53.978Z,82.28
2022-08-18T07:46:26.846Z,78.15
2022-08-18T07:48:53.929Z,77.93
2022-08-18T07:51:36.937Z,72.38
2022-08-18T07:54:47.044Z,67.03
2022-08-18T07:57:05.712Z,71.47
2022-08-18T07:59:50.784Z,69.78
2022-08-18T08:02:29.144Z,66.60
2022-08-18T08:05:32.996Z,74.22
2022-08-18T08:08:37.093Z,67.22
2022-08-18T08:11:13.560Z,62.88
2022-08-18T08:14:01.743Z,62.53
2022-08-18T08:16:42.317Z,63.75
2022-08-18T08:19:42.624Z,63.58
2022-08-18T08:22:21.061Z,59.10
2022-08-18T08:24:59.897Z,58.95
2022-08-18T08:27:32.665Z,58.13
2022-08-18T08:30:03.406Z,58.17
2022-08-18T08:32:36.309Z,52.50
2022-08-18T08:35:47.316Z,57.40
2022-08-18T08:38:36.714Z,57.15
2022-08-18T08:41:13.047Z,54.17
2022-08-18T08:43:47.958Z,54.63
2022-08-18T08:46:31.040Z,56.08
2022-08-18T08:49:18.917Z,55.47
2022-08-18T08:51:56.684Z,53.75
2022-08-18T08:54:26.981Z,51.55
2022-08-18T08:56:58.537Z,51.47
2022-08-18T08:59:25.749Z,54.28
2022-08-18T09:02:32.229Z,55.97
2022-08-18T09:05:08.427Z,54.97
2022-08-18T09:08:00.623Z,51.03
2022-08-18T09:10:57.341Z,51.65
2022-08-18T09:13:39.270Z,47.05
2022-08-18T09:16:23.888Z,50.10
2022-08-18T09:19:16.492Z,43.88
2022-08-18T09:21:54.364Z,46.70
2022-08-18T09:24:29.121Z,41.05
2022-08-18T09:27:14.824Z,42.20
2022-08-18T09:29:57.472Z,37.83
2022-08-18T09:32:26.039Z,36.90
2022-08-18T09:35:52.019Z,36.80
2022-08-18T09:38:45.209Z,34.28
2022-08-18T09:41:32.243Z,34.70
2022-08-18T09:47:00.234Z,32.40
2022-08-18T09:49:29.212Z,29.92
2022-08-18T09:55:17.057Z,30.45
2022-08-18T09:57:46.701Z,25.98
2022-08-18T10:00:29.191Z,29.80
2022-08-18T10:02:57.830Z,29.50
2022-08-18T10:05:31.339Z,28.65
2022-08-18T10:08:07.562Z,25.98
2022-08-18T10:11:01.172Z,23.75
2022-08-18T10:13:49.505Z,29.10
2022-08-18T10:17:23.393Z,26.98
2022-08-18T10:20:26.550Z,27.98
2022-08-18T10:22:55.468Z,24.90
2022-08-18T10:25:34.467Z,30.50
2022-08-18T10:28:05.644Z,28.33
2022-08-18T10:30:36.462Z,26.73
2022-08-18T10:34:01.719Z,24.40
2022-08-18T10:36:58.860Z,24.08
2022-08-18T10:39:50.096Z,22.77
2022-08-18T10:42:45.662Z,22.52
2022-08-18T10:45:24.532Z,22.65
2022-08-18T10:48:24.284Z,24.05
2022-08-18T10:51:01.722Z,24.15
2022-08-18T10:53:55.215Z,26.02
2022-08-18T10:56:49.897Z,23.73
2022-08-18T10:59:28.707Z,23.67
2022-08-18T11:02:18.628Z,23.92
2022-08-18T11:04:59.286Z,22.58
2022-08-18T11:10:35.003Z,24.08
2022-08-18T11:13:32.929Z,21.13
2022-08-18T11:16:18.286Z,16.30
2022-08-18T11:18:53.053Z,22.55
2022-08-18T11:21:43.413Z,21.17
2022-08-18T11:24:35.584Z,21.25
2022-08-18T11:27:23.446Z,21.20
2022-08-18T11:29:51.638Z,22.90
2022-08-18T11:32:24.486Z,21.88
2022-08-18T11:34:53.427Z,18.88
2022-08-18T11:37:48.819Z,19.08
2022-08-18T11:41:09.154Z,21.38
2022-08-18T11:43:24.863Z,19.00
2022-08-18T11:46:11.822Z,22.75
2022-08-18T11:48:51.687Z,17.88
2022-08-18T11:51:25.199Z,19.42
2022-08-18T11:54:21.717Z,19.83
2022-08-18T11:56:50.330Z,21.33
2022-08-18T11:59:53.956Z,20.98
2022-08-18T12:02:18.259Z,23.10
2022-08-18T12:04:52.520Z,20.65
2022-08-18T12:07:29.368Z,20.33
2022-08-18T12:10:26.224Z,22.48
2022-08-18T12:13:00.862Z,15.65
2022-08-18T12:15:44.110Z,22.02
2022-08-18T12:21:03.108Z,22.08
2022-08-18T12:23:44.451Z,19.52
2022-08-18T12:26:27.110Z,19.65
2022-08-18T12:29:03.049Z,22.15
2022-08-18T12:31:42.395Z,22.23
2022-08-18T12:34:15.570Z,24.80
2022-08-18T12:36:42.549Z,21.95
2022-08-18T12:39:10.714Z,23.50
2022-08-18T12:41:38.079Z,21.20
2022-08-18T12:44:09.937Z,20.60
2022-08-18T12:49:27.712Z,18.30
2022-08-18T12:51:56.643Z,24.10
2022-08-18T12:54:25.576Z,18.42
2022-08-18T12:56:56.036Z,16.30
2022-08-18T12:59:24.412Z,18.80
2022-08-18T13:01:51.841Z,22.50
2022-08-18T13:07:13.781Z,19.77
2022-08-18T13:09:53.366Z,19.15
2022-08-18T13:12:22.526Z,20.80
2022-08-18T13:14:51.547Z,23.30
2022-08-18T13:17:32.283Z,20.10
2022-08-18T13:20:07.581Z,19.45
2022-08-18T13:22:35.840Z,17.52
2022-08-18T13:25:05.215Z,21.08
2022-08-18T13:27:35.161Z,17.05
2022-08-18T13:30:29.853Z,18.02
2022-08-18T13:33:00.315Z,21.85
2022-08-18T13:35:35.334Z,21.15
2022-08-18T13:38:14.558Z,17.63
2022-08-18T13:40:50.647Z,21.00
2022-08-18T13:43:21.835Z,21.50
2022-08-18T13:45:53.167Z,19.83
2022-08-18T13:48:24.144Z,23.17
2022-08-18T13:50:53.992Z,18.02
2022-08-18T13:53:23.682Z,21.25
2022-08-18T13:55:52.497Z,19.67
2022-08-18T13:58:21.121Z,17.75
2022-08-18T14:00:54.916Z,12.52
2022-08-18T14:03:42.583Z,15.38
2022-08-18T14:06:13.081Z,17.23
2022-08-18T14:08:40.862Z,14.38
2022-08-18T14:11:09.501Z,14.75
2022-08-18T14:13:43.502Z,13.93
2022-08-18T14:16:18.410Z,8.80
2022-08-18T14:19:09.595Z,9.55
2022-08-18T14:22:11.009Z,15.32
2022-08-18T14:24:59.420Z,15.88
2022-08-18T14:27:35.147Z,16.73
2022-08-18T14:30:09.364Z,17.25
2022-08-18T14:32:49.114Z,16.85
2022-08-18T14:35:34.544Z,18.70
2022-08-18T14:38:05.666Z,16.05
2022-08-18T14:40:33.719Z,13.82
2022-08-18T14:43:02.829Z,16.77
2022-08-18T14:45:35.467Z,16.73
2022-08-18T14:48:06.644Z,18.50
2022-08-18T14:50:35.515Z,17.90
2022-08-18T14:53:02.839Z,13.73
2022-08-18T14:55:30.505Z,14.98
2022-08-18T14:57:59.312Z,11.77
2022-08-18T15:00:27.947Z,17.17
2022-08-18T15:02:57.449Z,14.02
2022-08-18T15:05:32.009Z,13.27
2022-08-18T15:08:05.040Z,13.25
2022-08-18T15:10:33.288Z,15.85
2022-08-18T15:13:00.966Z,13.43
2022-08-18T15:15:50.557Z,13.07
2022-08-18T15:18:22.775Z,13.95
2022-08-18T15:21:19.517Z,10.38
2022-08-18T15:24:20.221Z,9.88
2022-08-18T15:26:51.834Z,10.02
2022-08-18T15:29:27.862Z,9.13
2022-08-18T15:32:02.183Z,11.75
2022-08-18T15:34:46.702Z,12.70
2022-08-18T15:37:19.423Z,13.05
2022-08-18T15:39:51.943Z,13.10
2022-08-18T15:42:23.658Z,14.95
2022-08-18T15:44:53.650Z,15.15
2022-08-18T15:47:21.559Z,13.35
2022-08-18T15:49:48.912Z,17.50
2022-08-18T15:52:19.849Z,13.07
2022-08-18T15:54:50.591Z,14.70
2022-08-18T15:57:38.768Z,13.68
2022-08-18T16:00:06.605Z,13.73
2022-08-18T16:02:33.780Z,12.77
2022-08-18T16:05:10.376Z,14.20
2022-08-18T16:07:45.140Z,12.20
2022-08-18T16:10:14.269Z,12.05
2022-08-18T16:12:45.944Z,14.27
2022-08-18T16:15:22.873Z,11.77
2022-08-18T16:17:51.502Z,16.60
2022-08-18T16:20:20.248Z,13.90
2022-08-18T16:22:48.248Z,12.95
2022-08-18T16:25:16.522Z,13.63
2022-08-18T16:27:44.561Z,16.77
2022-08-18T16:30:16.142Z,14.40
2022-08-18T16:32:43.148Z,14.52
2022-08-18T16:35:11.212Z,11.57
2022-08-18T16:37:38.464Z,14.93
2022-08-18T16:40:08.459Z,17.73
2022-08-18T16:42:36.716Z,13.07
2022-08-18T16:45:04.947Z,18.58
2022-08-18T16:47:34.761Z,12.93
2022-08-18T16:50:01.679Z,13.23
2022-08-18T16:52:28.488Z,13.25
2022-08-18T16:54:57.912Z,13.15
2022-08-18T16:57:53.394Z,15.73
2022-08-18T17:00:41.606Z,17.52
2022-08-18T17:03:27.563Z,15.68
2022-08-18T17:06:03.135Z,16.55
2022-08-18T17:08:34.332Z,16.23
2022-08-18T17:11:09.492Z,12.18
2022-08-18T17:13:38.529Z,12.55
2022-08-18T17:16:05.774Z,23.67
2022-08-18T17:18:33.213Z,14.18
2022-08-18T17:21:05.712Z,14.40
2022-08-18T17:23:33.593Z,13.57
2022-08-18T17:26:00.990Z,12.20
2022-08-18T17:28:52.609Z,10.75
2022-08-18T17:31:24.939Z,13.98
2022-08-18T17:33:57.519Z,15.40
2022-08-18T17:36:42.262Z,11.23
2022-08-18T17:39:24.364Z,14.02
2022-08-18T17:42:10.536Z,14.50
2022-08-18T17:44:46.339Z,12.93
2022-08-18T17:47:26.519Z,14.23
2022-08-18T17:50:27.237Z,13.40
2022-08-18T17:53:06.231Z,13.05
2022-08-18T17:55:44.530Z,12.77
2022-08-18T17:58:24.550Z,12.77
2022-08-18T18:00:51.728Z,13.45
2022-08-18T18:03:19.102Z,13.75
2022-08-18T18:05:55.294Z,13.02
2022-08-18T18:08:54.164Z,11.98
2022-08-18T18:11:27.429Z,13.35
2022-08-18T18:13:54.789Z,14.02
2022-08-18T18:16:37.220Z,13.40
2022-08-18T18:19:07.623Z,12.80
2022-08-18T18:22:00.392Z,14.55
2022-08-18T18:24:32.269Z,12.07
2022-08-18T18:26:59.722Z,15.63
2022-08-18T18:29:37.817Z,14.27
2022-08-18T18:32:30.976Z,11.68
2022-08-18T18:35:15.741Z,11.27
2022-08-18T18:38:05.814Z,13.65
2022-08-18T18:40:56.449Z,19.58
2022-08-18T18:43:43.641Z,13.40
2022-08-18T18:46:18.353Z,18.58
2022-08-18T18:49:04.990Z,15.55
2022-08-18T18:52:00.165Z,15.07
2022-08-18T18:54:32.967Z,16.30
2022-08-18T18:57:00.470Z,17.50
2022-08-18T18:59:28.840Z,13.35
2022-08-18T19:02:33.580Z,14.93
2022-08-18T19:05:19.896Z,13.70
2022-08-18T19:08:02.339Z,11.55
2022-08-18T19:10:44.228Z,14.85
2022-08-18T19:13:32.513Z,14.77
2022-08-18T19:16:32.645Z,15.55
2022-08-18T19:19:38.365Z,14.45
2022-08-18T19:22:30.308Z,16.08
2022-08-18T19:25:04.267Z,15.88
2022-08-18T19:27:40.195Z,15.05
2022-08-18T19:30:12.107Z,18.52
2022-08-18T19:32:45.534Z,21.85
2022-08-18T19:35:24.579Z,17.50
2022-08-18T19:38:11.395Z,21.98
2022-08-18T19:41:05.562Z,20.92
2022-08-18T19:44:17.944Z,18.80
2022-08-18T19:46:53.590Z,23.27
2022-08-18T19:49:48.209Z,19.77
2022-08-18T19:52:46.394Z,18.00
2022-08-18T19:55:33.441Z,18.35
2022-08-18T19:58:02.909Z,17.63
2022-08-18T20:00:40.540Z,22.08
2022-08-18T20:03:33.586Z,19.30
2022-08-18T20:06:34.662Z,21.30
2022-08-18T20:09:09.985Z,19.67
2022-08-18T20:11:50.849Z,23.02
2022-08-18T20:14:19.244Z,23.33
2022-08-18T20:17:05.687Z,21.92
2022-08-18T20:19:57.563Z,22.08
2022-08-18T20:22:25.117Z,23.42
2022-08-18T20:25:11.241Z,23.35
2022-08-18T20:27:39.553Z,24.75
2022-08-18T20:30:21.516Z,24.52
2022-08-18T20:33:26.001Z,27.45
2022-08-18T20:35:53.014Z,22.45
2022-08-18T20:38:27.438Z,22.67
2022-08-18T20:40:55.470Z,23.02
2022-08-18T20:43:34.853Z,23.70
2022-08-18T20:46:27.379Z,24.77
2022-08-18T20:49:06.188Z,22.30
2022-08-18T20:51:52.067Z,25.48
2022-08-18T20:54:30.337Z,20.98
2022-08-18T20:57:02.029Z,22.30
2022-08-18T20:59:39.048Z,24.83
2022-08-18T21:02:23.091Z,21.83
2022-08-18T21:04:52.949Z,24.27
2022-08-18T21:07:36.808Z,23.30
2022-08-18T21:10:26.140Z,23.58
2022-08-18T21:12:56.569Z,24.95
2022-08-18T21:15:29.298Z,28.98
2022-08-18T21:18:20.050Z,26.02
2022-08-18T21:20:48.926Z,25.40
2022-08-18T21:23:24.823Z,27.17
2022-08-18T21:25:59.223Z,28.67
2022-08-18T21:28:31.410Z,27.80
2022-08-18T21:31:42.283Z,26.90
2022-08-18T21:33:58.553Z,27.45
2022-08-18T21:36:31.642Z,28.25
2022-08-18T21:39:06.434Z,31.13
2022-08-18T21:41:48.232Z,30.38
2022-08-18T21:44:44.586Z,29.90
2022-08-18T21:47:18.049Z,28.95
2022-08-18T21:50:23.151Z,29.42
2022-08-18T21:52:54.168Z,34.00
2022-08-18T21:55:30.222Z,33.47
2022-08-18T21:58:08.731Z,33.03
2022-08-18T22:00:37.661Z,36.08
2022-08-18T22:03:24.439Z,38.97
2022-08-18T22:06:16.044Z,43.47
2022-08-18T22:08:50.202Z,42.33
2022-08-18T22:12:00.537Z,39.72
2022-08-18T22:14:54.408Z,43.35
2022-08-18T22:17:32.590Z,43.88
2022-08-18T22:20:38.235Z,43.88
2022-08-18T22:23:32.529Z,42.33
2022-08-18T22:26:30.598Z,45.03
2022-08-18T22:29:07.391Z,46.70
2022-08-18T22:31:44.377Z,47.42
2022-08-18T22:34:27.457Z,46.60
2022-08-18T22:37:14.426Z,50.17
2022-08-18T22:39:43.686Z,46.65
2022-08-18T22:42:11.448Z,37.47
2022-08-18T22:44:38.583Z,36.33
2022-08-18T22:47:06.272Z,31.15
2022-08-18T22:49:37.008Z,36.28
2022-08-18T22:52:12.124Z,33.30
2022-08-18T22:54:38.985Z,31.83
2022-08-18T22:57:08.995Z,33.35
2022-08-18T22:59:37.756Z,31.13
2022-08-18T23:02:10.524Z,26.52
2022-08-18T23:04:37.539Z,27.02
2022-08-18T23:07:04.545Z,28.40
2022-08-18T23:09:33.518Z,27.33
2022-08-18T23:12:04.909Z,28.00
2022-08-18T23:14:33.141Z,24.75
2022-08-18T23:17:02.103Z,20.08
2022-08-18T23:19:31.533Z,28.25
2022-08-18T23:22:02.955Z,24.98
2022-08-18T23:24:31.029Z,25.67
2022-08-18T23:26:59.037Z,25.67
2022-08-18T23:29:26.905Z,27.90
2022-08-18T23:31:54.204Z,22.35
2022-08-18T23:34:23.429Z,27.73
2022-08-18T23:36:56.676Z,27.58
2022-08-18T23:39:25.819Z,33.33
2022-08-18T23:41:53.757Z,31.58
2022-08-18T23:44:27.872Z,27.90
2022-08-18T23:46:59.102Z,30.40
2022-08-18T23:49:28.604Z,28.33
2022-08-18T23:51:57.702Z,32.92
2022-08-18T23:54:33.982Z,28.70
2022-08-18T23:57:01.123Z,30.15
2022-08-18T23:59:29.193Z,28.17
